Terminal Aerodrome Forecast
Issued by NWS New Orleans/Baton Rouge, LA

Home | Current Version | Previous Version | Text Only | Print | Product List | Glossary On
Versions: 1 2 3 4 5 6 7 8 9 10 11 12 13 14 15 16 17 18 19 20 21 22 23
000
FTUS44 KLIX 011100
TAFNEW
TAF
KNEW 011139Z 0112/0212 13005KT P6SM FEW020 BKN250
     FM011400 14012KT P6SM BKN035
     FM011700 14012KT P6SM VCTS SCT035CB BKN250
     FM020000 16006KT P6SM BKN250=

USA.gov is the U.S. government's official web portal to all federal, state and local government web resources and services.